Time;durP1;ratioP1;P1;durP2;ratioP2;P2;SDS_P1;SDS_P2;PMS_P1;PMS_P2;Temp;Humidity;BMP_temperature;BMP_pressure;BME280_temperature;BME280_humidity;BME280_pressure;Samples;Min_cycle;Max_cycle;Signal;HPM_P1;HPM_P2
2022/04/02 00:01:00;;;;;;;31.87;5.07;;;;;;;16.94;70.62;97391.38;5075969;28;20230;-95
2022/04/02 00:03:26;;;;;;;19.57;4.27;;;;;;;16.81;71.13;97383.06;5058276;28;20279;-94
2022/04/02 00:05:52;;;;;;;14.53;3.17;;;;;;;16.89;70.87;97391.88;5059014;28;20172;-95
2022/04/02 00:08:18;;;;;;;21.37;4.20;;;;;;;16.99;70.50;97400.47;5057558;28;20283;-93
2022/04/02 00:10:43;;;;;;;17.07;3.40;;;;;;;16.90;70.65;97414.69;5057964;28;20584;-91
2022/04/02 00:13:09;;;;;;;17.83;4.60;;;;;;;16.80;71.14;97419.28;5057069;28;20211;-93
2022/04/02 00:15:34;;;;;;;19.47;3.93;;;;;;;16.79;71.59;97416.81;5057162;28;20200;-94
2022/04/02 00:18:00;;;;;;;19.60;3.70;;;;;;;16.90;70.81;97419.16;5057512;28;20185;-92
2022/04/02 00:20:25;;;;;;;18.37;4.63;;;;;;;17.03;70.21;97420.31;5057198;28;20662;-95
2022/04/02 00:25:35;;;;;;;20.90;5.37;;;;;;;16.85;70.63;97401.09;5075331;28;20202;-91
2022/04/02 00:28:01;;;;;;;17.03;5.03;;;;;;;16.81;70.93;97398.94;5074277;28;20206;-96
2022/04/02 00:30:27;;;;;;;13.00;4.87;;;;;;;16.65;71.88;97399.72;5074669;28;20692;-92
2022/04/02 00:32:52;;;;;;;17.57;4.47;;;;;;;16.45;72.44;97396.50;5056743;28;20181;-92
2022/04/02 00:35:18;;;;;;;28.07;4.07;;;;;;;16.47;72.72;97391.03;5056597;28;20292;-91
2022/04/02 00:37:43;;;;;;;13.33;3.47;;;;;;;16.48;72.58;97393.50;5056919;28;20188;-88
2022/04/02 00:40:09;;;;;;;21.53;3.70;;;;;;;16.35;73.46;97395.78;5056391;28;20187;-94
2022/04/02 00:42:35;;;;;;;21.17;4.13;;;;;;;16.37;73.05;97399.13;5056440;28;20183;-89
2022/04/02 00:45:00;;;;;;;22.27;5.07;;;;;;;16.48;72.36;97393.50;5056924;28;20169;-88
2022/04/02 00:47:26;;;;;;;30.20;4.23;;;;;;;16.44;72.40;97391.34;5074864;28;20177;-94
2022/04/02 00:49:53;;;;;;;12.47;3.77;;;;;;;16.41;72.60;97386.38;5056620;28;20188;-95
2022/04/02 00:52:20;;;;;;;30.57;4.90;;;;;;;16.38;72.64;97390.16;5056259;28;20190;-90
2022/04/02 00:54:49;;;;;;;19.10;4.53;;;;;;;16.38;72.66;97395.47;5056239;28;20202;-88
2022/04/02 00:57:16;;;;;;;20.40;3.20;;;;;;;16.37;72.51;97391.19;5056141;28;20184;-92
2022/04/02 00:59:41;;;;;;;20.03;4.27;;;;;;;16.33;72.69;97395.13;5073615;28;20179;-89
2022/04/02 01:02:07;;;;;;;10.50;2.87;;;;;;;16.41;72.06;97394.31;5073842;28;20610;-89
2022/04/02 01:04:32;;;;;;;21.47;4.10;;;;;;;16.36;72.21;97392.16;5074051;28;20185;-92
2022/04/02 01:06:59;;;;;;;26.13;4.73;;;;;;;16.31;72.54;97386.53;5056766;28;20272;-87
2022/04/02 01:09:25;;;;;;;26.07;4.50;;;;;;;16.28;72.62;97381.53;5073975;28;20176;-90
2022/04/02 01:11:52;;;;;;;12.40;4.33;;;;;;;16.19;73.02;97366.66;5056078;28;20187;-87
2022/04/02 01:14:30;;;;;;;26.27;4.43;;;;;;;16.14;73.18;97378.69;5055743;28;20270;-93
2022/04/02 01:16:55;;;;;;;11.97;4.27;;;;;;;16.05;73.52;97356.66;5055757;28;20539;-85
2022/04/02 01:19:20;;;;;;;13.30;2.93;;;;;;;15.95;74.32;97358.59;5074130;28;20183;-90
2022/04/02 01:21:47;;;;;;;28.17;3.90;;;;;;;15.99;73.71;97370.50;5073443;28;20180;-88
2022/04/02 01:24:13;;;;;;;22.90;3.07;;;;;;;16.03;73.40;97371.84;5073739;28;20238;-87
2022/04/02 01:26:39;;;;;;;14.70;3.10;;;;;;;15.93;73.15;97366.66;5073227;28;20733;-88
2022/04/02 01:29:06;;;;;;;9.70;3.23;;;;;;;15.85;73.44;97363.97;5073524;28;20173;-89
2022/04/02 01:31:33;;;;;;;26.57;5.57;;;;;;;15.87;73.16;97355.91;5073127;28;20179;-91
2022/04/02 01:33:59;;;;;;;18.60;3.53;;;;;;;15.94;71.94;97346.34;5073703;28;20692;-88
2022/04/02 01:36:25;;;;;;;16.60;3.23;;;;;;;16.11;71.42;97350.75;5055501;28;20548;-85
2022/04/02 01:38:51;;;;;;;19.43;4.13;;;;;;;15.94;71.76;97352.47;5073512;28;20194;-86
2022/04/02 01:41:17;;;;;;;26.33;3.47;;;;;;;15.96;71.00;97360.22;5073105;28;20236;-88
2022/04/02 01:43:43;;;;;;;21.77;2.90;;;;;;;15.95;71.30;97363.88;5055779;28;20281;-91
2022/04/02 01:46:09;;;;;;;18.43;4.13;;;;;;;15.88;71.73;97352.25;5073269;28;20256;-92
2022/04/02 01:48:35;;;;;;;19.07;3.47;;;;;;;16.07;70.71;97352.03;5073427;28;20214;-93
2022/04/02 01:51:01;;;;;;;18.77;4.63;;;;;;;16.14;70.21;97358.34;5056006;28;20213;-87
2022/04/02 01:53:27;;;;;;;14.53;3.47;;;;;;;16.09;70.32;97357.97;5073341;28;20182;-92
2022/04/02 01:55:53;;;;;;;24.87;3.37;;;;;;;16.15;70.37;97367.09;5072880;28;20209;-94
2022/04/02 01:58:19;;;;;;;26.47;3.90;;;;;;;16.31;69.35;97353.97;5055445;28;20264;-93
2022/04/02 02:00:46;;;;;;;13.03;3.47;;;;;;;16.48;68.22;97355.69;5074986;28;20183;-91
2022/04/02 02:03:12;;;;;;;12.77;3.20;;;;;;;16.47;68.04;97360.13;5059548;28;20195;-90
2022/04/02 02:05:41;;;;;;;12.30;2.90;;;;;;;16.46;67.97;97373.50;5077188;28;20176;-93
2022/04/02 02:08:07;;;;;;;21.50;3.53;;;;;;;16.37;68.37;97370.03;5059522;28;20191;-90
2022/04/02 02:10:33;;;;;;;20.53;3.80;;;;;;;16.49;67.79;97383.78;5076962;28;20187;-92
2022/04/02 02:13:00;;;;;;;13.67;3.63;;;;;;;16.57;67.22;97386.47;5059610;28;20632;-89
2022/04/02 02:15:27;;;;;;;10.57;3.47;;;;;;;16.63;66.73;97390.31;5059116;28;20709;-93
2022/04/02 02:17:53;;;;;;;23.60;4.77;;;;;;;16.65;66.56;97406.84;5059297;28;20273;-91
2022/04/02 02:20:19;;;;;;;15.80;4.33;;;;;;;16.69;66.46;97411.66;5059394;28;20175;-92
2022/04/02 02:22:46;;;;;;;22.07;4.37;;;;;;;16.67;66.29;97405.69;5059612;28;20224;-93
2022/04/02 02:25:15;;;;;;;25.57;3.83;;;;;;;16.76;65.54;97406.53;5059182;28;20195;-93
2022/04/02 02:27:42;;;;;;;21.77;3.60;;;;;;;16.80;65.39;97407.88;5059441;28;20175;-94
2022/04/02 02:30:10;;;;;;;11.60;3.77;;;;;;;16.79;64.69;97404.41;5059733;28;20187;-94
2022/04/02 02:32:39;;;;;;;5.17;2.30;;;;;;;16.86;64.40;97400.13;5059392;28;20180;-94
2022/04/02 02:37:50;;;;;;;17.70;3.27;;;;;;;16.74;63.95;97403.25;5077241;28;20178;-93
2022/04/02 02:40:16;;;;;;;16.13;3.03;;;;;;;16.79;63.69;97403.59;5059082;28;20183;-95
2022/04/02 02:42:41;;;;;;;18.17;3.73;;;;;;;16.67;63.31;97396.91;5059119;28;20220;-93
2022/04/02 02:45:07;;;;;;;13.13;3.57;;;;;;;16.39;63.53;97404.22;5059121;28;20217;-95
2022/04/02 02:47:33;;;;;;;16.90;3.73;;;;;;;16.45;62.51;97408.88;5059019;28;20182;-93
2022/04/02 02:50:00;;;;;;;20.33;3.70;;;;;;;16.26;62.87;97409.97;5059331;28;20544;-93
2022/04/02 02:52:26;;;;;;;9.40;2.30;;;;;;;16.37;61.92;97417.63;5058915;28;20626;-95
2022/04/02 02:54:52;;;;;;;10.97;2.17;;;;;;;16.23;61.73;97420.84;5075980;28;20726;-86
2022/04/02 02:57:17;;;;;;;6.73;1.90;;;;;;;15.99;62.37;97428.63;5076388;28;20171;-91
2022/04/02 02:59:43;;;;;;;6.93;1.63;;;;;;;15.98;62.33;97432.28;5076225;28;20179;-91
2022/04/02 03:02:11;;;;;;;10.97;2.27;;;;;;;15.99;62.35;97439.19;5058516;28;20176;-88
2022/04/02 03:04:37;;;;;;;11.30;2.33;;;;;;;16.12;61.84;97450.19;5076451;28;20251;-90
2022/04/02 03:07:03;;;;;;;2.80;1.63;;;;;;;16.17;61.88;97453.19;5076740;28;20190;-92
2022/04/02 03:09:28;;;;;;;11.57;2.30;;;;;;;16.33;60.90;97453.28;5058653;28;20214;-93
2022/04/02 03:11:55;;;;;;;5.70;1.80;;;;;;;16.30;60.79;97453.59;5058258;28;20639;-94
2022/04/02 03:14:21;;;;;;;9.93;1.63;;;;;;;16.20;61.19;97458.16;5058722;28;20277;-92
2022/04/02 03:16:46;;;;;;;11.17;1.73;;;;;;;16.06;61.75;97460.56;5058399;28;20221;-95
2022/04/02 03:19:12;;;;;;;11.23;1.97;;;;;;;16.08;61.47;97454.13;5058111;28;20368;-90
2022/04/02 03:21:37;;;;;;;13.80;2.03;;;;;;;16.01;61.94;97460.19;5058297;28;20188;-95
2022/04/02 03:24:03;;;;;;;13.63;3.27;;;;;;;15.96;61.93;97460.63;5057929;28;20586;-91
2022/04/02 03:26:29;;;;;;;14.53;2.17;;;;;;;16.21;61.29;97469.56;5058218;28;20187;-96
2022/04/02 03:28:54;;;;;;;11.43;2.77;;;;;;;16.10;61.42;97457.44;5058029;28;20358;-94
2022/04/02 03:31:20;;;;;;;8.87;1.43;;;;;;;16.30;60.93;97453.59;5059145;28;20285;-94
2022/04/02 03:33:45;;;;;;;20.00;2.37;;;;;;;16.26;60.32;97462.00;5058334;28;20539;-88
2022/04/02 03:36:11;;;;;;;6.60;1.93;;;;;;;16.24;60.26;97470.09;5075711;28;20343;-94
2022/04/02 03:38:37;;;;;;;11.57;2.77;;;;;;;16.35;59.80;97483.03;5057901;28;20180;-94
2022/04/02 03:41:04;;;;;;;11.57;2.17;;;;;;;16.36;59.20;97490.00;5058103;28;20248;-94
2022/04/02 03:43:30;;;;;;;5.43;1.37;;;;;;;16.29;59.31;97488.97;5058109;28;20180;-95
2022/04/02 03:47:08;;;;;;;7.87;2.57;;;;;;;16.23;59.56;97497.50;5075469;28;20639;-93
2022/04/02 03:48:42;;;;;;;7.80;1.97;;;;;;;16.42;58.87;97499.13;5075267;28;20263;-94
2022/04/02 03:51:10;;;;;;;6.73;1.17;;;;;;;16.46;58.44;97503.09;5057753;28;20188;-93
2022/04/02 03:53:38;;;;;;;14.50;2.10;;;;;;;16.51;57.77;97509.56;5057803;28;20181;-94
2022/04/02 03:56:05;;;;;;;9.90;1.43;;;;;;;16.56;57.34;97509.16;5057569;28;20685;-93
2022/04/02 03:58:31;;;;;;;7.97;2.87;;;;;;;16.41;56.90;97513.31;5057422;28;20647;-93
2022/04/02 04:00:57;;;;;;;5.03;1.27;;;;;;;16.38;56.70;97527.66;5057533;28;20190;-93
2022/04/02 04:03:23;;;;;;;3.87;1.20;;;;;;;16.43;56.45;97528.03;5057518;28;20174;-93
2022/04/02 04:05:48;;;;;;;17.60;3.03;;;;;;;16.48;56.12;97533.69;5057633;28;20602;-93
2022/04/02 04:08:14;;;;;;;5.90;2.30;;;;;;;16.16;57.39;97546.69;5074876;28;20209;-93
2022/04/02 04:10:39;;;;;;;9.73;1.47;;;;;;;16.18;58.16;97533.31;5075028;28;20195;-95
2022/04/02 04:13:05;;;;;;;10.27;2.27;;;;;;;16.09;59.05;97537.72;5057382;28;20186;-94
2022/04/02 04:15:30;;;;;;;6.50;1.37;;;;;;;15.94;60.03;97531.31;5057361;28;20222;-94
2022/04/02 04:17:57;;;;;;;5.77;1.83;;;;;;;15.94;59.84;97528.69;5075063;28;20187;-91
2022/04/02 04:20:22;;;;;;;8.60;2.27;;;;;;;15.90;60.38;97537.91;5074871;28;20210;-95
2022/04/02 04:22:48;;;;;;;6.23;1.87;;;;;;;16.03;59.94;97540.16;5056976;28;20217;-95
2022/04/02 04:25:14;;;;;;;18.20;3.30;;;;;;;16.04;59.87;97550.56;5057686;28;20187;-95
2022/04/02 04:27:39;;;;;;;5.10;1.77;;;;;;;16.16;59.42;97551.16;5058268;28;20179;-93
2022/04/02 04:30:06;;;;;;;12.67;2.00;;;;;;;16.11;59.46;97559.56;5057908;28;20625;-93
2022/04/02 04:32:32;;;;;;;9.00;1.93;;;;;;;16.06;59.89;97561.81;5057101;28;21026;-94
2022/04/02 04:34:58;;;;;;;10.83;1.53;;;;;;;16.14;59.26;97569.78;5057080;28;20583;-93
2022/04/02 04:37:23;;;;;;;14.70;2.60;;;;;;;16.11;59.09;97571.94;5057386;28;20177;-92
2022/04/02 04:39:49;;;;;;;18.43;1.93;;;;;;;16.00;59.31;97578.28;5057000;28;20193;-92
2022/04/02 04:42:14;;;;;;;5.07;1.40;;;;;;;16.04;59.00;97584.91;5074530;28;20212;-92
2022/04/02 04:44:40;;;;;;;8.67;2.37;;;;;;;16.06;58.90;97577.69;5074401;28;20171;-90
2022/04/02 04:47:06;;;;;;;4.13;1.57;;;;;;;15.87;59.43;97596.34;5056394;28;20205;-92
2022/04/02 04:49:32;;;;;;;15.73;2.20;;;;;;;15.88;59.12;97603.25;5074206;28;20215;-93
2022/04/02 04:51:58;;;;;;;3.37;1.27;;;;;;;16.01;58.36;97605.53;5056244;28;20183;-91
2022/04/02 04:54:23;;;;;;;11.17;1.87;;;;;;;16.19;57.88;97598.44;5056402;28;20237;-92
2022/04/02 04:56:49;;;;;;;8.33;1.93;;;;;;;16.30;57.49;97601.66;5056558;28;20642;-93
2022/04/02 04:59:14;;;;;;;6.00;1.10;;;;;;;16.40;57.16;97601.56;5056335;28;20278;-89
2022/04/02 05:01:40;;;;;;;14.67;2.17;;;;;;;16.67;56.56;97595.31;5074300;28;20263;-93
2022/04/02 05:04:06;;;;;;;3.83;1.10;;;;;;;16.86;55.44;97595.13;5056423;28;20173;-92
2022/04/02 05:06:33;;;;;;;9.80;1.43;;;;;;;17.10;54.27;97595.25;5056405;28;20192;-93
2022/04/02 05:08:58;;;;;;;11.77;2.50;;;;;;;17.44;52.84;97593.41;5073953;28;20176;-92
2022/04/02 05:11:24;;;;;;;7.70;1.13;;;;;;;17.70;51.83;97607.41;5073548;28;20224;-94
2022/04/02 05:13:49;;;;;;;12.70;1.83;;;;;;;17.88;50.51;97606.44;5056519;28;20181;-93
2022/04/02 05:16:15;;;;;;;11.40;2.63;;;;;;;18.16;49.92;97624.53;5074962;28;20235;-93
2022/04/02 05:18:41;;;;;;;7.97;0.97;;;;;;;18.64;48.62;97618.44;5056157;28;20191;-92
2022/04/02 05:21:07;;;;;;;6.57;2.23;;;;;;;19.18;47.16;97616.00;5056481;28;20713;-93
2022/04/02 05:23:33;;;;;;;7.80;0.73;;;;;;;19.56;45.94;97620.50;5056119;28;20208;-91
2022/04/02 05:25:58;;;;;;;5.70;0.83;;;;;;;19.99;45.86;97619.94;5055851;28;20620;-93
2022/04/02 05:28:24;;;;;;;8.93;1.77;;;;;;;20.50;44.87;97617.56;5055899;28;20250;-93
2022/04/02 05:30:49;;;;;;;2.70;0.83;;;;;;;20.94;42.86;97615.81;5055967;28;20169;-93
2022/04/02 05:33:15;;;;;;;4.10;0.80;;;;;;;21.52;41.35;97620.34;5073455;28;20757;-92
2022/04/02 05:35:41;;;;;;;6.03;1.07;;;;;;;22.46;39.84;97628.16;5054789;28;20709;-92
2022/04/02 05:38:06;;;;;;;6.37;1.33;;;;;;;23.83;37.47;97627.47;5055572;28;20192;-93
2022/04/02 05:40:32;;;;;;;2.00;0.73;;;;;;;24.84;34.51;97624.56;5055613;28;20238;-92
2022/04/02 05:42:57;;;;;;;5.70;1.33;;;;;;;25.90;33.63;97615.25;5073419;28;20185;-92
2022/04/02 05:45:23;;;;;;;6.90;1.63;;;;;;;26.20;32.11;97619.00;5055395;28;20173;-93
2022/04/02 05:47:50;;;;;;;9.73;1.50;;;;;;;26.32;32.66;97613.78;5073333;28;20617;-92
2022/04/02 05:50:18;;;;;;;3.93;1.23;;;;;;;26.22;33.33;97629.56;5072987;28;20200;-93
2022/04/02 05:52:44;;;;;;;5.17;1.00;;;;;;;25.88;33.23;97622.69;5055454;28;20180;-92
2022/04/02 05:55:11;;;;;;;5.37;1.10;;;;;;;25.75;33.05;97633.50;5055720;28;20284;-93
2022/04/02 05:57:39;;;;;;;2.63;0.90;;;;;;;25.37;33.64;97619.94;5073068;28;20177;-92
2022/04/02 06:00:06;;;;;;;4.93;0.57;;;;;;;25.65;32.83;97622.38;5072873;28;20256;-90
2022/04/02 06:02:32;;;;;;;9.13;1.87;;;;;;;26.23;32.05;97626.66;5055316;28;20644;-91
2022/04/02 06:04:57;;;;;;;3.63;1.40;;;;;;;27.16;30.67;97629.47;5073058;28;20203;-92
2022/04/02 06:07:23;;;;;;;5.40;1.23;;;;;;;28.40;29.24;97641.47;5055304;28;20176;-91
2022/04/02 06:09:48;;;;;;;9.90;1.40;;;;;;;29.44;27.58;97630.00;5072919;28;20529;-91
2022/04/02 06:12:14;;;;;;;8.10;0.80;;;;;;;30.16;26.42;97636.63;5072961;28;20636;-90
2022/04/02 06:14:39;;;;;;;3.13;1.07;;;;;;;30.71;25.60;97645.00;5054963;28;20192;-91
2022/04/02 06:17:05;;;;;;;7.13;0.70;;;;;;;30.27;25.08;97646.59;5072909;28;20177;-92
2022/04/02 06:19:30;;;;;;;2.97;0.35;;;;;;;29.96;24.74;97646.25;5055287;28;20181;-92
2022/04/02 06:21:56;;;;;;;1.48;0.20;;;;;;;29.65;24.73;97652.88;5055081;28;20187;-92
2022/04/02 06:24:21;;;;;;;4.10;1.00;;;;;;;29.01;25.18;97659.22;5072879;28;20188;-87
2022/04/02 06:26:47;;;;;;;1.65;0.80;;;;;;;28.93;25.54;97641.47;5072782;28;20200;-88
2022/04/02 06:29:14;;;;;;;3.45;0.35;;;;;;;28.89;25.65;97631.38;5072559;28;20192;-92
2022/04/02 06:31:43;;;;;;;4.60;0.88;;;;;;;28.64;25.77;97629.69;5073143;28;20178;-93
2022/04/02 06:34:13;;;;;;;4.55;0.68;;;;;;;28.40;25.85;97630.69;5072771;28;20173;-89
2022/04/02 06:36:39;;;;;;;1.90;0.30;;;;;;;28.04;26.33;97646.94;5073212;28;20188;-91
2022/04/02 06:39:04;;;;;;;3.28;0.98;;;;;;;27.78;26.37;97647.22;5055057;28;20683;-91
2022/04/02 06:41:30;;;;;;;4.07;0.95;;;;;;;28.21;26.43;97644.44;5072824;28;20204;-86
2022/04/02 06:43:55;;;;;;;3.17;0.52;;;;;;;28.40;25.90;97646.03;5072740;28;20170;-91
2022/04/02 06:46:21;;;;;;;1.85;0.63;;;;;;;28.52;25.48;97642.31;5055696;28;20177;-93
2022/04/02 06:48:46;;;;;;;5.47;0.82;;;;;;;28.52;25.52;97647.72;5059173;28;20180;-94
2022/04/02 06:51:12;;;;;;;2.10;0.40;;;;;;;28.35;25.11;97633.25;5058933;28;20181;-92
2022/04/02 06:53:37;;;;;;;0.98;0.40;;;;;;;28.16;24.78;97639.75;5059370;28;20460;-92
2022/04/02 06:56:03;;;;;;;4.13;0.50;;;;;;;28.29;25.37;97631.47;5060424;28;20201;-89
2022/04/02 06:59:23;;;;;;;2.92;0.75;;;;;;;28.01;25.59;97625.81;5077558;28;20169;-96
2022/04/02 07:02:10;;;;;;;1.65;0.30;;;;;;;27.61;26.47;97630.88;5007014;28;20200;-94
2022/04/02 07:04:34;;;;;;;1.23;0.43;;;;;;;27.41;26.39;97633.78;5075981;28;20180;-91
2022/04/02 07:07:05;;;;;;;3.47;0.80;;;;;;;26.84;26.07;97637.59;5076515;28;20177;-90
2022/04/02 07:09:31;;;;;;;5.38;0.70;;;;;;;26.61;26.88;97639.22;5058580;28;20173;-90
2022/04/02 07:11:57;;;;;;;3.28;0.40;;;;;;;26.71;27.00;97639.53;5058637;28;20254;-95
2022/04/02 07:14:23;;;;;;;2.03;0.40;;;;;;;26.73;27.41;97637.47;5058507;28;20177;-87
2022/04/02 07:16:58;;;;;;;5.07;0.67;;;;;;;26.66;27.09;97631.31;5075484;28;20620;-94
2022/04/02 07:19:25;;;;;;;0.73;0.30;;;;;;;26.44;27.19;97640.78;5075690;28;20172;-89
2022/04/02 07:21:52;;;;;;;4.43;0.70;;;;;;;26.11;27.38;97649.84;5075676;28;20655;-85
2022/04/02 07:24:22;;;;;;;0.30;0.10;;;;;;;25.64;28.30;97648.41;5075635;28;20173;-87
2022/04/02 07:26:48;;;;;;;1.17;0.30;;;;;;;25.46;28.03;97650.09;5057661;28;20611;-87
2022/04/02 07:29:14;;;;;;;1.60;0.23;;;;;;;25.35;28.86;97661.44;5075524;28;20184;-89
2022/04/02 07:31:41;;;;;;;1.47;0.30;;;;;;;25.33;28.77;97650.09;5058697;28;20208;-85
2022/04/02 07:34:07;;;;;;;1.07;0.30;;;;;;;25.23;28.05;97655.06;5057516;28;20656;-84
2022/04/02 07:36:47;;;;;;;4.27;0.57;;;;;;;25.08;28.96;97646.44;5075062;28;20241;-88
2022/04/02 07:39:43;;;;;;;4.23;1.23;;;;;;;24.85;28.67;97658.41;5057463;28;20253;-87
2022/04/02 07:42:23;;;;;;;0.63;0.20;;;;;;;24.96;30.01;97648.91;5057361;28;20195;-89
2022/04/02 07:45:08;;;;;;;1.43;0.47;;;;;;;24.93;29.55;97643.97;5075306;28;20153;-87
2022/04/02 07:47:35;;;;;;;2.43;0.20;;;;;;;24.77;28.79;97655.88;5057567;28;20246;-84
2022/04/02 07:50:07;;;;;;;1.70;0.40;;;;;;;24.69;29.49;97650.72;5075383;28;20252;-91
2022/04/02 07:52:33;;;;;;;1.50;0.30;;;;;;;24.67;29.23;97650.13;5075434;28;20290;-88
2022/04/02 07:55:01;;;;;;;1.23;0.40;;;;;;;24.65;30.05;97646.00;5074677;28;20610;-90
2022/04/02 07:57:49;;;;;;;2.40;0.30;;;;;;;24.64;28.97;97650.53;5074635;28;20169;-90
2022/04/02 08:00:21;;;;;;;0.73;0.20;;;;;;;24.46;29.19;97647.63;5075162;28;20591;-91
2022/04/02 08:02:49;;;;;;;0.63;0.20;;;;;;;24.32;29.60;97651.28;5075180;28;20253;-89
2022/04/02 08:05:17;;;;;;;2.80;0.73;;;;;;;24.51;29.95;97650.50;5074614;28;20537;-88
2022/04/02 08:07:49;;;;;;;1.77;0.40;;;;;;;24.42;29.79;97657.09;5056849;28;20607;-90
2022/04/02 08:10:19;;;;;;;1.47;0.60;;;;;;;24.61;30.51;97650.09;5056962;28;20204;-92
2022/04/02 08:12:45;;;;;;;2.30;0.50;;;;;;;24.90;29.46;97645.19;5056912;28;20522;-85
2022/04/02 08:15:16;;;;;;;1.67;0.63;;;;;;;25.05;29.70;97645.78;5074541;28;20197;-89
2022/04/02 08:17:43;;;;;;;0.77;0.17;;;;;;;24.94;29.00;97638.41;5074314;28;20157;-85
2022/04/02 08:20:10;;;;;;;2.03;0.40;;;;;;;24.89;28.89;97621.28;5074267;28;20199;-87
2022/04/02 08:22:36;;;;;;;5.10;0.50;;;;;;;24.92;29.65;97618.19;5074300;28;20169;-91
2022/04/02 08:25:01;;;;;;;1.27;0.20;;;;;;;24.98;29.31;97628.91;5074443;28;20184;-86
2022/04/02 08:27:37;;;;;;;2.23;0.37;;;;;;;25.21;29.78;97619.59;5074122;28;20258;-92
2022/04/02 08:30:05;;;;;;;1.47;0.30;;;;;;;25.23;28.96;97623.72;5074356;28;20157;-88
2022/04/02 08:32:41;;;;;;;3.40;0.47;;;;;;;25.11;28.39;97629.91;5056657;28;20640;-88
2022/04/02 08:35:08;;;;;;;0.67;0.27;;;;;;;25.37;28.81;97635.22;5056468;28;20550;-86
2022/04/02 08:37:37;;;;;;;1.97;0.23;;;;;;;25.48;27.84;97631.94;5056611;28;20668;-89
2022/04/02 08:40:09;;;;;;;0.60;0.20;;;;;;;25.64;26.66;97636.81;5074159;28;20261;-89
2022/04/02 08:43:14;;;;;;;0.33;0.20;;;;;;;25.70;26.17;97624.44;5074323;28;20201;-89
2022/04/02 08:46:18;;;;;;;0.47;0.13;;;;;;;25.35;25.30;97637.28;5074094;28;20161;-88
2022/04/02 08:49:13;;;;;;;0.40;0.20;;;;;;;25.00;25.53;97642.09;5044064;28;20188;-88
2022/04/02 08:51:46;;;;;;;1.07;0.40;;;;;;;24.97;26.24;97639.84;5073781;28;20181;-87
2022/04/02 08:54:26;;;;;;;0.80;0.20;;;;;;;25.16;26.16;97646.22;5073872;28;20248;-88
2022/04/02 08:56:59;;;;;;;0.63;0.20;;;;;;;25.34;25.22;97630.31;5073531;28;20212;-90
2022/04/02 08:59:38;;;;;;;0.40;0.10;;;;;;;25.61;25.22;97615.78;5073587;28;20169;-88
2022/04/02 09:02:09;;;;;;;0.93;0.10;;;;;;;25.26;24.79;97612.53;5073988;28;20620;-86
2022/04/02 09:04:40;;;;;;;1.07;0.23;;;;;;;25.33;26.61;97602.66;5074006;28;20633;-88
2022/04/02 09:07:18;;;;;;;1.20;0.20;;;;;;;25.46;24.79;97601.81;5073349;28;20173;-87
2022/04/02 09:09:46;;;;;;;2.17;0.47;;;;;;;25.51;25.32;97612.72;5073175;28;20289;-86
2022/04/02 09:12:30;;;;;;;0.50;0.20;;;;;;;25.87;25.08;97607.59;5053670;28;20228;-88
2022/04/02 09:15:10;;;;;;;4.93;0.40;;;;;;;26.18;24.50;97609.53;5073020;28;20262;-89
2022/04/02 09:18:06;;;;;;;0.52;0.10;;;;;;;26.39;24.51;97614.56;5073539;28;20177;-88
2022/04/02 09:20:56;;;;;;;0.10;0.10;;;;;;;26.15;24.21;97608.09;5055581;28;20177;-86
2022/04/02 09:24:04;;;;;;;0.53;0.27;;;;;;;26.30;24.82;97606.97;5073477;28;20165;-86
2022/04/02 09:27:03;;;;;;;0.37;0.20;;;;;;;26.30;24.37;97605.13;5060046;28;20271;-89
2022/04/02 09:29:36;;;;;;;0.95;0.30;;;;;;;26.39;25.32;97587.69;5073412;28;20227;-89
2022/04/02 09:32:26;;;;;;;1.40;0.30;;;;;;;26.37;25.15;97597.00;5073684;28;20199;-86
2022/04/02 09:35:31;;;;;;;1.07;0.37;;;;;;;26.30;25.71;97604.31;5073104;28;20209;-86
2022/04/02 09:38:19;;;;;;;1.27;0.40;;;;;;;26.37;26.02;97581.72;5007180;28;20224;-87
2022/04/02 09:40:50;;;;;;;1.10;0.30;;;;;;;26.41;25.49;97587.50;5073277;28;20167;-88
2022/04/02 09:43:28;;;;;;;0.25;0.20;;;;;;;26.36;25.80;97598.06;5055314;28;20180;-87
2022/04/02 09:46:28;;;;;;;2.93;0.60;;;;;;;26.29;27.40;97587.34;5072980;28;20171;-89
2022/04/02 09:49:16;;;;;;;1.27;0.22;;;;;;;26.41;26.49;97591.00;5073168;28;20168;-88
2022/04/02 09:51:49;;;;;;;0.30;0.20;;;;;;;26.28;26.92;97590.28;5056222;28;20242;-85
2022/04/02 09:54:30;;;;;;;0.90;0.40;;;;;;;26.34;27.19;97578.63;5055248;28;20177;-86
2022/04/02 09:57:25;;;;;;;0.43;0.20;;;;;;;26.25;26.60;97572.72;5073021;28;20165;-88
2022/04/02 10:00:07;;;;;;;1.87;0.43;;;;;;;26.52;27.30;97581.41;5073143;28;20161;-86
2022/04/02 10:03:01;;;;;;;0.43;0.13;;;;;;;26.54;26.50;97590.06;5072792;28;20172;-87
2022/04/02 10:05:50;;;;;;;4.40;0.30;;;;;;;26.42;27.21;97578.38;5072794;28;20169;-89
2022/04/02 10:08:38;;;;;;;1.80;0.40;;;;;;;26.37;27.72;97570.97;5055387;28;20181;-88
2022/04/02 10:11:07;;;;;;;0.77;0.20;;;;;;;26.35;27.57;97581.13;5072574;28;20193;-87
2022/04/02 10:13:36;;;;;;;3.50;0.57;;;;;;;26.31;28.66;97566.47;5072703;28;20241;-91
2022/04/02 10:16:04;;;;;;;1.13;0.45;;;;;;;25.97;27.74;97577.63;5072607;28;20272;-87
2022/04/02 10:18:34;;;;;;;9.10;0.47;;;;;;;26.15;27.80;97599.25;5073217;28;20236;-88
2022/04/02 10:21:05;;;;;;;5.43;0.68;;;;;;;26.12;27.06;97581.69;5056012;28;20173;-88
2022/04/02 10:23:37;;;;;;;1.80;0.20;;;;;;;26.28;28.65;97563.41;5076883;28;20299;-92
2022/04/02 10:26:07;;;;;;;1.95;0.75;;;;;;;26.02;28.72;97591.22;5076804;28;20223;-88
2022/04/02 10:28:49;;;;;;;1.45;0.63;;;;;;;26.17;29.14;97573.81;5059130;28;20514;-88
2022/04/02 10:31:56;;;;;;;1.13;0.50;;;;;;;26.12;28.55;97565.59;5076676;28;20180;-91
2022/04/02 10:34:37;;;;;;;0.68;0.35;;;;;;;25.71;28.73;97583.16;5076635;28;20248;-89
2022/04/02 10:37:10;;;;;;;1.10;0.30;;;;;;;25.37;29.66;97565.47;5076613;28;20173;-89
2022/04/02 10:39:49;;;;;;;2.13;0.43;;;;;;;25.51;29.38;97565.25;5076516;28;20189;-93
2022/04/02 10:42:17;;;;;;;3.13;0.30;;;;;;;25.74;29.08;97564.72;5076207;28;20161;-90
2022/04/02 10:44:56;;;;;;;3.20;0.60;;;;;;;25.68;28.99;97568.28;5076396;28;20195;-89
2022/04/02 10:47:27;;;;;;;1.33;0.25;;;;;;;25.63;28.86;97578.81;5076686;28;20574;-88
2022/04/02 10:50:12;;;;;;;0.17;0.10;;;;;;;25.64;29.03;97556.31;5058509;28;20280;-90
2022/04/02 10:52:41;;;;;;;3.60;0.93;;;;;;;26.01;28.74;97566.25;5076341;28;20175;-90
2022/04/02 10:55:12;;;;;;;0.90;0.17;;;;;;;25.94;28.50;97552.00;5088659;28;20653;-87
2022/04/02 10:57:37;;;;;;;0.95;0.38;;;;;;;25.79;29.03;97531.88;5078361;28;20696;-91
2022/04/02 11:00:08;;;;;;;0.43;0.20;;;;;;;25.70;28.36;97563.53;5078354;28;20180;-90
2022/04/02 11:02:49;;;;;;;3.50;0.43;;;;;;;25.45;28.25;97567.91;5096928;28;20512;-89
2022/04/02 11:05:17;;;;;;;11.43;0.40;;;;;;;25.36;29.52;97562.00;5096380;28;20261;-89
2022/04/02 11:07:48;;;;;;;8.88;0.75;;;;;;;25.38;29.02;97549.19;5096529;28;20705;-87
2022/04/02 11:10:20;;;;;;;1.27;0.68;;;;;;;25.56;29.97;97551.19;5078578;28;20175;-89
2022/04/02 11:12:48;;;;;;;0.68;0.20;;;;;;;25.39;30.18;97558.06;5095918;28;20183;-90
2022/04/02 11:15:17;;;;;;;4.63;0.35;;;;;;;24.98;29.89;97587.84;5095758;28;20257;-90
2022/04/02 11:17:46;;;;;;;1.33;0.67;;;;;;;24.70;30.45;97592.59;5078291;28;20249;-91
2022/04/02 11:20:19;;;;;;;1.17;0.37;;;;;;;24.15;31.11;97588.47;5095663;28;20200;-91
2022/04/02 11:23:02;;;;;;;4.40;0.67;;;;;;;24.22;31.67;97598.16;5096009;28;20205;-89
2022/04/02 11:25:31;;;;;;;4.30;0.30;;;;;;;24.39;31.20;97569.97;5095914;28;20163;-90
2022/04/02 11:28:12;;;;;;;1.23;0.33;;;;;;;24.49;31.50;97574.06;5096136;28;20242;-89
2022/04/02 11:30:40;;;;;;;5.70;0.33;;;;;;;24.33;31.65;97580.66;5096183;28;20243;-91
2022/04/02 11:33:07;;;;;;;4.03;0.63;;;;;;;24.44;30.94;97566.66;5095685;28;20168;-89
2022/04/02 11:35:43;;;;;;;1.80;0.40;;;;;;;24.53;31.45;97562.72;5077894;28;20299;-89
2022/04/02 11:38:21;;;;;;;2.63;0.60;;;;;;;24.71;30.63;97552.19;5095437;28;20174;-89
2022/04/02 11:41:11;;;;;;;1.13;0.20;;;;;;;24.30;30.41;97564.97;5077604;28;20254;-90
2022/04/02 11:43:42;;;;;;;3.20;0.30;;;;;;;24.13;31.03;97553.03;5095352;28;20168;-87
2022/04/02 11:46:10;;;;;;;1.53;0.40;;;;;;;24.12;31.24;97544.19;5095525;28;20157;-87
2022/04/02 11:48:50;;;;;;;1.93;0.80;;;;;;;24.09;31.40;97543.75;5095197;28;20638;-89
2022/04/02 11:51:19;;;;;;;0.90;0.20;;;;;;;24.11;31.42;97541.72;5095145;28;20160;-89